SBBQSBRP

Guest
Details From SBBQ - MAJOR BRIGADEIRO DOORGAL BORGES
To SBRP - LEITE LOPES
Flight Number -
Tags generated
Created
Modified
Stats Distance 240 nm / 444 km
Max Altitude 30,400 ft / 9,266 m
Waypoints 4
Social Downloads 0
Likes 0
Share VATSIM

Download

Looking for another format? Having issues loading an existing format? Contact us
Advertisement - Login to hide

Notes

Basic altitude profile: - Ascent Rate: 500ft/min - Ascent Speed: 80kts - Cruise Altitude: 5500ft - Cruise Speed: 120kts - Descent Rate: 500ft/min - Descent Speed: 120kts Options: - Use NATs: yes - Use PACOTS: yes - Use low airways: yes - Use high airways: no

Route

SBBQ VGH W57 PCL SBRP

ID Type Via Altitude Latitude Longitude Leg Dist Tot Dist Heading (true) Name
O SBBQ APT - 0 ft / 0 m -21.26717˚ -43.76104˚ - 0 nm - MAJOR BRIGADEIRO DOORGAL BORGES
VGH NDB - 30,400 ft / 9,266 m -21.58817˚ -45.47433˚ 97 nm 97 nm 258° / 259° VARGINHA NDB
PCL NDB W57 (AWY-LO) 16,000 ft / 4,877 m -21.83583˚ -46.56567˚ 62 nm 160 nm 256° / 256° POCOS NDB
O SBRP APT - 0 ft / 0 m -21.13417˚ -47.77419˚ 79 nm 239 nm 302° / 302° LEITE LOPES

Altitude Profile

Advertisement - Login to hide

Weather


0- 5 10 15 20 25 30 35+ Temperature / ° C

Clouds and Precipitation
Forecast for 2017-12-11 18:00 UTC. Updated 29 minutes ago

Ground ~20,000 ft ~40,000 ft Winds

SBBQ

Details ICAO SBBQ
Name MAJOR BRIGADEIRO DOORGAL BORGES
Region Brazil
Timezone America/Sao_Paulo (UTC-2.0)
Stats Elevation 3,657 ft / 1,115 m (AMSL)
Location -21.267166° -43.761041°
Runways 1
Magnetic Variation 22.752° W

METAR

SBBQ 111500Z 31005KT 9999 BKN035 BKN100 27/15 Q1013

Decode

TAF

Not found

Departure Runways

ID Width Length Bearing (true) Bearing (mag) Surface Threshold Offset Overrun Length
18 98 ft / 30 m 5,810 ft / 1,771 m 162.30° 185.05° Asphalt 0 ft / 0 m 0 ft / 0 m
36 98 ft / 30 m 5,810 ft / 1,771 m 342.30° 5.05° Asphalt 0 ft / 0 m 0 ft / 0 m

SBRP

Details ICAO SBRP (RAO)
Name LEITE LOPES
Region Brazil
Timezone America/Sao_Paulo (UTC-2.0)
Stats Elevation 1,802 ft / 549 m (AMSL)
Location -21.134166° -47.774189°
Runways 1
Magnetic Variation 21.202° W

METAR

SBRP 111500Z 08005KT 9999 SCT040 32/14 Q1008

Decode

TAF

TAF SBRP 110900Z 1112/1212 10005KT CAVOK TX33/1117Z TN21/1208Z BECMG 1112/1114 SCT025 BECMG 1114/1116 26010KT SCT045 TEMPO 1117/1121 12005KT TSRA SCT040 FEW045CB BECMG 1122/1124 CAVOK PROB30 1207/1210 06003KT RMK PGD

Decode

Destination Runways

ID Width Length Bearing (true) Bearing (mag) Surface Threshold Offset Overrun Length
18 115 ft / 35 m 6,918 ft / 2,109 m 163.40° 184.60° Asphalt 657 ft / 200 m 0 ft / 0 m
36 115 ft / 35 m 6,918 ft / 2,109 m 343.40° 4.60° Asphalt 328 ft / 100 m 0 ft / 0 m

Popular Alternatives